Time;durP1;ratioP1;P1;durP2;ratioP2;P2;SDS_P1;SDS_P2;PMS_P1;PMS_P2;Temp;Humidity;BMP_temperature;BMP_pressure;BME280_temperature;BME280_humidity;BME280_pressure;Samples;Min_cycle;Max_cycle;Signal;HPM_P1;HPM_P2
2023/06/22 00:00:15;;;;;;;16.85;13.40;;;;;;;;;;5072789;28;20028;-72
2023/06/22 00:02:41;;;;;;;16.63;14.00;;;;;;;;;;5072774;28;20172;-73
2023/06/22 00:05:06;;;;;;;16.27;13.52;;;;;;;;;;5072900;28;20112;-74
2023/06/22 00:07:34;;;;;;;14.63;12.82;;;;;;;;;;5072555;28;20046;-73
2023/06/22 00:10:00;;;;;;;17.40;15.13;;;;;;;;;;5072753;28;20020;-74
2023/06/22 00:12:26;;;;;;;15.82;13.20;;;;;;;;;;5054732;28;20052;-73
2023/06/22 00:14:53;;;;;;;14.65;13.07;;;;;;;;;;5054753;28;20051;-74
2023/06/22 00:17:18;;;;;;;15.70;13.40;;;;;;;;;;5072121;28;20480;-73
2023/06/22 00:19:46;;;;;;;15.75;13.13;;;;;;;;;;5058658;28;20059;-74
2023/06/22 00:22:12;;;;;;;17.08;14.05;;;;;;;;;;5076547;28;20021;-71
2023/06/22 00:24:37;;;;;;;16.90;13.97;;;;;;;;;;5076520;28;20043;-73
2023/06/22 00:27:05;;;;;;;14.50;12.97;;;;;;;;;;5058763;28;20608;-73
2023/06/22 00:29:31;;;;;;;16.25;13.27;;;;;;;;;;5076222;28;20294;-74
2023/06/22 00:31:57;;;;;;;17.63;13.27;;;;;;;;;;5076466;28;20101;-73
2023/06/22 00:34:24;;;;;;;15.35;13.65;;;;;;;;;;5076672;28;20035;-73
2023/06/22 00:36:51;;;;;;;14.38;12.63;;;;;;;;;;5076441;28;20059;-73
2023/06/22 00:39:17;;;;;;;16.15;13.95;;;;;;;;;;5076971;28;20021;-73
2023/06/22 00:41:43;;;;;;;17.20;13.80;;;;;;;;;;5075838;28;20033;-74
2023/06/22 00:44:09;;;;;;;17.33;13.13;;;;;;;;;;5058198;28;20032;-72
2023/06/22 00:46:35;;;;;;;17.17;13.90;;;;;;;;;;5076135;28;20273;-73
2023/06/22 00:49:05;;;;;;;16.33;13.25;;;;;;;;;;5075561;28;20372;-74
2023/06/22 00:51:47;;;;;;;16.60;13.88;;;;;;;;;;5075127;28;20078;-72
2023/06/22 00:54:13;;;;;;;19.67;14.25;;;;;;;;;;5074298;28;20017;-73
2023/06/22 00:56:46;;;;;;;18.40;13.77;;;;;;;;;;5074383;28;20527;-74
2023/06/22 00:59:12;;;;;;;19.88;13.95;;;;;;;;;;5074990;28;20028;-73
2023/06/22 01:01:46;;;;;;;16.00;14.30;;;;;;;;;;5075341;28;20023;-74
2023/06/22 01:04:12;;;;;;;18.33;15.13;;;;;;;;;;5071040;28;20546;-73
2023/06/22 01:06:41;;;;;;;16.63;14.27;;;;;;;;;;5073843;28;20021;-73
2023/06/22 01:09:15;;;;;;;16.63;14.45;;;;;;;;;;5074081;28;20159;-74
2023/06/22 01:11:50;;;;;;;16.52;14.35;;;;;;;;;;5074403;28;20024;-73
2023/06/22 01:14:20;;;;;;;18.85;14.65;;;;;;;;;;5074623;28;20460;-73
2023/06/22 01:16:46;;;;;;;18.05;16.15;;;;;;;;;;5074688;28;20028;-74
2023/06/22 01:19:30;;;;;;;20.00;15.27;;;;;;;;;;5074200;28;20036;-74
2023/06/22 01:21:56;;;;;;;19.73;15.20;;;;;;;;;;5075205;28;20178;-74
2023/06/22 01:24:31;;;;;;;17.92;15.98;;;;;;;;;;5075377;28;20017;-73
2023/06/22 01:27:01;;;;;;;17.80;15.45;;;;;;;;;;5075298;28;20393;-73
2023/06/22 01:29:29;;;;;;;19.33;15.13;;;;;;;;;;5068802;28;20068;-72
2023/06/22 01:31:56;;;;;;;21.02;16.42;;;;;;;;;;5055440;28;20035;-74
2023/06/22 01:34:22;;;;;;;18.13;14.98;;;;;;;;;;5037401;28;20033;-72
2023/06/22 01:36:47;;;;;;;21.05;16.65;;;;;;;;;;5037263;28;20574;-73
2023/06/22 01:39:14;;;;;;;19.00;16.55;;;;;;;;;;5037375;28;20057;-72
2023/06/22 01:41:41;;;;;;;22.90;17.15;;;;;;;;;;5037498;28;20021;-74
2023/06/22 01:44:08;;;;;;;23.02;17.45;;;;;;;;;;5037085;28;20033;-72
2023/06/22 01:46:45;;;;;;;20.15;16.65;;;;;;;;;;5055335;28;20112;-74
2023/06/22 01:49:19;;;;;;;20.55;16.17;;;;;;;;;;5055157;28;20021;-73
2023/06/22 01:51:46;;;;;;;21.45;16.90;;;;;;;;;;5054748;28;20409;-72
2023/06/22 01:54:12;;;;;;;18.83;16.75;;;;;;;;;;5051615;28;20032;-72
2023/06/22 01:56:39;;;;;;;21.13;17.55;;;;;;;;;;5036515;28;20473;-74
2023/06/22 01:59:07;;;;;;;22.25;16.70;;;;;;;;;;5054947;28;20021;-73
2023/06/22 02:01:46;;;;;;;19.90;16.27;;;;;;;;;;5054844;28;20024;-74
2023/06/22 02:04:34;;;;;;;19.45;16.33;;;;;;;;;;5054949;28;20032;-74
2023/06/22 02:07:10;;;;;;;22.63;17.00;;;;;;;;;;5054786;28;20167;-73
2023/06/22 02:09:37;;;;;;;20.27;17.65;;;;;;;;;;5054606;28;20385;-73
2023/06/22 02:12:04;;;;;;;21.40;17.25;;;;;;;;;;5054865;28;20064;-74
2023/06/22 02:14:29;;;;;;;22.55;16.70;;;;;;;;;;5054663;28;20024;-73
2023/06/22 02:16:58;;;;;;;22.52;16.67;;;;;;;;;;5054189;28;20079;-74
2023/06/22 02:19:27;;;;;;;22.05;16.58;;;;;;;;;;5054865;28;20082;-73
2023/06/22 02:21:53;;;;;;;21.73;16.38;;;;;;;;;;5020025;28;20033;-73
2023/06/22 02:24:18;;;;;;;19.98;17.63;;;;;;;;;;5054181;28;20021;-73
2023/06/22 02:26:52;;;;;;;18.00;15.60;;;;;;;;;;5053657;28;20043;-73
2023/06/22 02:29:17;;;;;;;19.27;16.55;;;;;;;;;;5059026;28;20600;-72
2023/06/22 02:31:43;;;;;;;23.02;17.17;;;;;;;;;;5073992;28;20024;-72
2023/06/22 02:34:09;;;;;;;22.15;16.63;;;;;;;;;;5073324;28;20513;-73
2023/06/22 02:36:36;;;;;;;23.02;17.58;;;;;;;;;;5056016;28;20071;-74
2023/06/22 02:39:03;;;;;;;21.30;17.40;;;;;;;;;;5073996;28;20027;-73
2023/06/22 02:41:29;;;;;;;20.65;17.33;;;;;;;;;;5073043;28;20021;-73
2023/06/22 02:43:57;;;;;;;24.98;17.77;;;;;;;;;;5073697;28;20122;-73
2023/06/22 02:46:23;;;;;;;21.50;16.75;;;;;;;;;;5073968;28;20021;-74
2023/06/22 02:48:51;;;;;;;19.58;16.88;;;;;;;;;;5073954;28;20023;-74
2023/06/22 02:51:16;;;;;;;21.92;18.45;;;;;;;;;;5073795;28;20401;-73
2023/06/22 02:53:47;;;;;;;22.08;17.50;;;;;;;;;;5038990;28;20037;-73
2023/06/22 02:56:12;;;;;;;20.55;17.13;;;;;;;;;;5073771;28;20025;-73
2023/06/22 02:58:39;;;;;;;21.05;17.30;;;;;;;;;;5073435;28;20086;-73
2023/06/22 03:01:13;;;;;;;20.55;17.85;;;;;;;;;;5073651;28;20179;-73
2023/06/22 03:03:53;;;;;;;20.20;17.65;;;;;;;;;;5070255;28;20379;-73
2023/06/22 03:06:23;;;;;;;21.30;17.25;;;;;;;;;;5068917;28;20025;-73
2023/06/22 03:08:50;;;;;;;20.98;18.02;;;;;;;;;;5070098;28;20071;-73
2023/06/22 03:11:16;;;;;;;22.15;17.58;;;;;;;;;;5070106;28;20021;-73
2023/06/22 03:13:45;;;;;;;20.83;17.88;;;;;;;;;;5070465;28;20073;-72
2023/06/22 03:16:12;;;;;;;26.95;17.88;;;;;;;;;;5068859;28;20017;-73
2023/06/22 03:18:37;;;;;;;23.52;17.80;;;;;;;;;;5068726;28;20444;-73
2023/06/22 03:21:03;;;;;;;22.57;18.27;;;;;;;;;;5070198;28;20096;-73
2023/06/22 03:23:28;;;;;;;21.58;18.55;;;;;;;;;;5069881;28;20283;-73
2023/06/22 03:25:55;;;;;;;24.73;19.23;;;;;;;;;;5070515;28;20009;-73
2023/06/22 03:28:21;;;;;;;20.73;18.08;;;;;;;;;;5070283;28;20074;-72
2023/06/22 03:30:49;;;;;;;20.17;18.08;;;;;;;;;;5069914;28;20029;-72
2023/06/22 03:33:15;;;;;;;24.08;18.42;;;;;;;;;;5068389;28;20078;-72
2023/06/22 03:35:40;;;;;;;24.00;17.38;;;;;;;;;;5069631;28;20017;-72
2023/06/22 03:38:06;;;;;;;20.73;16.83;;;;;;;;;;5069767;28;20021;-72
2023/06/22 03:40:32;;;;;;;21.85;17.20;;;;;;;;;;5070003;28;20302;-72
2023/06/22 03:42:58;;;;;;;22.77;16.83;;;;;;;;;;5069879;28;20071;-72
2023/06/22 03:45:24;;;;;;;20.50;17.63;;;;;;;;;;5069459;28;20298;-72
2023/06/22 03:47:50;;;;;;;25.73;17.60;;;;;;;;;;5068253;28;20017;-72
2023/06/22 03:50:16;;;;;;;20.03;15.87;;;;;;;;;;5069566;28;20412;-72
2023/06/22 03:52:42;;;;;;;24.48;17.80;;;;;;;;;;5069550;28;20025;-72
2023/06/22 03:55:08;;;;;;;20.55;17.23;;;;;;;;;;5069206;28;20051;-71
2023/06/22 03:57:36;;;;;;;18.85;16.83;;;;;;;;;;5069391;28;20133;-72
2023/06/22 04:00:05;;;;;;;21.52;17.45;;;;;;;;;;5068962;28;20051;-72
2023/06/22 04:02:32;;;;;;;22.08;18.58;;;;;;;;;;5068621;28;20080;-72
2023/06/22 04:05:06;;;;;;;23.23;18.70;;;;;;;;;;5068900;28;20020;-73
2023/06/22 04:07:32;;;;;;;21.75;18.13;;;;;;;;;;5069110;28;20013;-71
2023/06/22 04:09:58;;;;;;;20.00;17.85;;;;;;;;;;5069058;28;20021;-73
2023/06/22 04:12:24;;;;;;;22.80;16.83;;;;;;;;;;5068560;28;20461;-74
2023/06/22 04:14:50;;;;;;;26.48;18.42;;;;;;;;;;5057193;28;20271;-72
2023/06/22 04:17:17;;;;;;;21.63;17.40;;;;;;;;;;5054950;28;20478;-73
2023/06/22 04:19:44;;;;;;;20.70;17.65;;;;;;;;;;5055531;28;20058;-73
2023/06/22 04:22:10;;;;;;;24.52;18.00;;;;;;;;;;5055457;28;20017;-73
2023/06/22 04:24:39;;;;;;;21.45;17.33;;;;;;;;;;5055744;28;20036;-72
2023/06/22 04:27:08;;;;;;;23.98;18.60;;;;;;;;;;5055605;28;20032;-72
2023/06/22 04:29:35;;;;;;;22.58;18.48;;;;;;;;;;5055490;28;20013;-73
2023/06/22 04:32:05;;;;;;;22.15;16.77;;;;;;;;;;5037164;28;20046;-75
2023/06/22 04:34:52;;;;;;;21.10;17.98;;;;;;;;;;5037142;28;20097;-74
2023/06/22 04:37:18;;;;;;;20.45;17.30;;;;;;;;;;5053808;28;20107;-74
2023/06/22 04:39:44;;;;;;;21.88;18.90;;;;;;;;;;5045504;28;20033;-74
2023/06/22 04:42:11;;;;;;;22.80;18.55;;;;;;;;;;5044316;28;20113;-73
2023/06/22 04:44:36;;;;;;;25.27;18.70;;;;;;;;;;5035155;28;20010;-74
2023/06/22 04:47:03;;;;;;;21.75;17.27;;;;;;;;;;5035476;28;20526;-74
2023/06/22 04:49:33;;;;;;;25.90;18.77;;;;;;;;;;5035020;28;20084;-76
2023/06/22 04:51:59;;;;;;;18.95;16.90;;;;;;;;;;5035342;28;20176;-77
2023/06/22 04:54:25;;;;;;;24.92;18.48;;;;;;;;;;5017222;28;20053;-75
2023/06/22 04:56:59;;;;;;;25.50;19.85;;;;;;;;;;5034855;28;20068;-77
2023/06/22 04:59:28;;;;;;;24.00;20.25;;;;;;;;;;5033277;28;20022;-75
2023/06/22 05:01:58;;;;;;;29.38;19.70;;;;;;;;;;5032946;28;20144;-75
2023/06/22 05:04:25;;;;;;;21.85;19.10;;;;;;;;;;5034031;28;20013;-74
2023/06/22 05:06:50;;;;;;;25.13;19.23;;;;;;;;;;5033312;28;20359;-74
2023/06/22 05:09:17;;;;;;;23.40;19.00;;;;;;;;;;5032747;28;20032;-74
2023/06/22 05:11:43;;;;;;;25.45;20.33;;;;;;;;;;5033809;28;20052;-78
2023/06/22 05:14:16;;;;;;;25.13;19.80;;;;;;;;;;5035948;28;20331;-74
2023/06/22 05:16:43;;;;;;;23.35;20.00;;;;;;;;;;5033801;28;20021;-75
2023/06/22 05:19:13;;;;;;;22.90;19.55;;;;;;;;;;5043483;28;20096;-78
2023/06/22 05:21:38;;;;;;;26.75;21.02;;;;;;;;;;5053558;28;20454;-78
2023/06/22 05:24:05;;;;;;;25.50;20.17;;;;;;;;;;5053999;28;20028;-74
2023/06/22 05:26:33;;;;;;;26.00;20.83;;;;;;;;;;5053619;28;20055;-74
2023/06/22 05:29:02;;;;;;;21.95;18.63;;;;;;;;;;5053045;28;20013;-75
2023/06/22 05:31:28;;;;;;;24.85;18.50;;;;;;;;;;5053823;28;20082;-76
2023/06/22 05:33:54;;;;;;;22.77;18.95;;;;;;;;;;5054072;28;20418;-75
2023/06/22 05:36:21;;;;;;;20.20;16.35;;;;;;;;;;5051904;28;20112;-74
2023/06/22 05:38:52;;;;;;;18.45;15.90;;;;;;;;;;5052684;28;20025;-75
2023/06/22 05:41:18;;;;;;;17.42;15.32;;;;;;;;;;5054181;28;20021;-75
2023/06/22 05:43:44;;;;;;;18.00;15.00;;;;;;;;;;5053091;28;20405;-75
2023/06/22 05:46:18;;;;;;;16.87;13.80;;;;;;;;;;5053527;28;20071;-75
2023/06/22 05:48:44;;;;;;;18.00;14.32;;;;;;;;;;5053471;28;20092;-75
2023/06/22 05:51:16;;;;;;;17.92;13.25;;;;;;;;;;5053029;28;20095;-76
2023/06/22 05:53:42;;;;;;;13.77;12.38;;;;;;;;;;5052906;28;20430;-76
2023/06/22 05:56:07;;;;;;;15.33;11.77;;;;;;;;;;5053201;28;20024;-76
2023/06/22 05:58:49;;;;;;;13.68;12.25;;;;;;;;;;5051539;28;20350;-76
2023/06/22 06:01:20;;;;;;;12.85;11.55;;;;;;;;;;5052779;28;20021;-77
2023/06/22 06:03:46;;;;;;;14.07;11.52;;;;;;;;;;5052279;28;20505;-75
2023/06/22 06:06:28;;;;;;;13.63;11.93;;;;;;;;;;5052439;28;20373;-76
2023/06/22 06:08:55;;;;;;;12.80;11.50;;;;;;;;;;5052825;28;20009;-75
2023/06/22 06:11:21;;;;;;;12.77;11.48;;;;;;;;;;5052422;28;20023;-75
2023/06/22 06:13:46;;;;;;;12.45;11.25;;;;;;;;;;5053704;28;20017;-76
2023/06/22 06:16:11;;;;;;;12.57;11.13;;;;;;;;;;5053265;28;20129;-76
2023/06/22 06:18:45;;;;;;;12.03;10.17;;;;;;;;;;5053557;28;20070;-76
2023/06/22 06:21:10;;;;;;;12.85;11.25;;;;;;;;;;5053561;28;20021;-76
2023/06/22 06:23:36;;;;;;;12.67;11.37;;;;;;;;;;5053517;28;20025;-76
2023/06/22 06:26:07;;;;;;;11.55;10.50;;;;;;;;;;5053632;28;20055;-76
2023/06/22 06:28:33;;;;;;;11.23;10.23;;;;;;;;;;5053508;28;20070;-76
2023/06/22 06:31:00;;;;;;;12.38;10.02;;;;;;;;;;5052022;28;20174;-76
2023/06/22 06:33:27;;;;;;;10.65;9.55;;;;;;;;;;5054009;28;20016;-76
2023/06/22 06:35:52;;;;;;;12.95;10.55;;;;;;;;;;5053647;28;20024;-76
2023/06/22 06:38:18;;;;;;;11.95;10.65;;;;;;;;;;5051748;28;20120;-76
2023/06/22 06:40:45;;;;;;;10.77;9.73;;;;;;;;;;5053335;28;20025;-77
2023/06/22 06:43:12;;;;;;;10.27;9.38;;;;;;;;;;5051895;28;20032;-75
2023/06/22 06:45:37;;;;;;;11.48;10.27;;;;;;;;;;5053187;28;20465;-75
2023/06/22 06:48:03;;;;;;;9.63;8.73;;;;;;;;;;5053112;28;20020;-77
2023/06/22 06:50:29;;;;;;;12.25;11.02;;;;;;;;;;5053418;28;20114;-76
2023/06/22 06:52:58;;;;;;;15.90;10.68;;;;;;;;;;5053075;28;20393;-77
2023/06/22 06:55:26;;;;;;;13.13;10.27;;;;;;;;;;5053377;28;20036;-76
2023/06/22 06:58:13;;;;;;;11.75;10.65;;;;;;;;;;5053108;28;20096;-75
2023/06/22 07:00:38;;;;;;;11.25;9.15;;;;;;;;;;5052944;28;20100;-76
2023/06/22 07:03:06;;;;;;;14.60;9.65;;;;;;;;;;5051636;28;20178;-77
2023/06/22 07:05:33;;;;;;;10.82;9.82;;;;;;;;;;5051689;28;20033;-76
2023/06/22 07:07:59;;;;;;;12.18;9.13;;;;;;;;;;5053209;28;20048;-75
2023/06/22 07:10:24;;;;;;;10.48;9.40;;;;;;;;;;5052925;28;20013;-75
2023/06/22 07:12:51;;;;;;;11.10;9.35;;;;;;;;;;5053082;28;20036;-76
2023/06/22 07:15:17;;;;;;;10.23;9.15;;;;;;;;;;5053101;28;20021;-76
2023/06/22 07:17:44;;;;;;;12.23;10.15;;;;;;;;;;5052777;28;20104;-76
2023/06/22 07:20:11;;;;;;;9.65;8.85;;;;;;;;;;5052654;28;20470;-77
2023/06/22 07:22:38;;;;;;;9.43;8.57;;;;;;;;;;5052562;28;20462;-76
2023/06/22 07:25:09;;;;;;;10.98;9.98;;;;;;;;;;5051237;28;20540;-75
2023/06/22 07:27:42;;;;;;;9.77;8.98;;;;;;;;;;5052494;28;20364;-77
2023/06/22 07:30:09;;;;;;;9.90;9.05;;;;;;;;;;5051539;28;20123;-76
2023/06/22 07:32:36;;;;;;;11.80;10.80;;;;;;;;;;5052756;28;20116;-75
2023/06/22 07:35:02;;;;;;;10.95;9.85;;;;;;;;;;5049493;28;20040;-78
2023/06/22 07:37:28;;;;;;;11.65;10.60;;;;;;;;;;5052544;28;20068;-75
2023/06/22 07:39:58;;;;;;;11.43;10.25;;;;;;;;;;5052672;28;20028;-75
2023/06/22 07:42:24;;;;;;;10.45;9.45;;;;;;;;;;5052668;28;20013;-75
2023/06/22 07:44:50;;;;;;;11.68;9.75;;;;;;;;;;5051331;28;20020;-75
2023/06/22 07:47:19;;;;;;;11.15;10.05;;;;;;;;;;5052490;28;20074;-76
2023/06/22 07:49:45;;;;;;;11.77;10.38;;;;;;;;;;5055037;28;20009;-74
2023/06/22 07:52:11;;;;;;;12.02;10.93;;;;;;;;;;5056414;28;20350;-76
2023/06/22 07:54:37;;;;;;;11.55;10.55;;;;;;;;;;5054967;28;20408;-77
2023/06/22 07:57:02;;;;;;;11.85;10.57;;;;;;;;;;5054728;28;20021;-76
2023/06/22 07:59:27;;;;;;;11.95;10.85;;;;;;;;;;5054824;28;20021;-76
2023/06/22 08:01:53;;;;;;;10.93;9.97;;;;;;;;;;5055740;28;20056;-75
2023/06/22 08:04:18;;;;;;;12.32;10.75;;;;;;;;;;5055991;28;20025;-79
2023/06/22 08:06:45;;;;;;;10.90;10.00;;;;;;;;;;5056203;28;20412;-77
2023/06/22 08:09:11;;;;;;;12.60;11.32;;;;;;;;;;5056052;28;20025;-77
2023/06/22 08:11:36;;;;;;;11.00;9.80;;;;;;;;;;5056015;28;20075;-76
2023/06/22 08:14:03;;;;;;;11.47;10.43;;;;;;;;;;5056215;28;20028;-77
2023/06/22 08:16:28;;;;;;;11.43;10.40;;;;;;;;;;5054669;28;20050;-76
2023/06/22 08:18:54;;;;;;;11.90;10.73;;;;;;;;;;5054512;28;20112;-76
2023/06/22 08:21:20;;;;;;;10.43;9.50;;;;;;;;;;5055882;28;20094;-76
2023/06/22 08:23:46;;;;;;;10.07;9.18;;;;;;;;;;5054432;28;20458;-75
2023/06/22 08:26:12;;;;;;;10.95;10.05;;;;;;;;;;5055803;28;20028;-74
2023/06/22 08:28:38;;;;;;;11.33;10.20;;;;;;;;;;5056109;28;20021;-75
2023/06/22 08:31:05;;;;;;;10.57;9.57;;;;;;;;;;5055591;28;20647;-75
2023/06/22 08:33:30;;;;;;;12.45;9.88;;;;;;;;;;5054322;28;20027;-74
2023/06/22 08:35:56;;;;;;;11.60;10.40;;;;;;;;;;5054593;28;20025;-75
2023/06/22 08:38:21;;;;;;;10.40;9.48;;;;;;;;;;5054156;28;20033;-75
2023/06/22 08:40:47;;;;;;;10.00;9.10;;;;;;;;;;5053813;28;20115;-75
2023/06/22 08:43:13;;;;;;;10.73;9.52;;;;;;;;;;5055905;28;20039;-74
2023/06/22 08:45:38;;;;;;;11.02;10.05;;;;;;;;;;5054266;28;20052;-76
2023/06/22 08:48:04;;;;;;;11.40;10.33;;;;;;;;;;5055566;28;20024;-75
2023/06/22 08:50:30;;;;;;;11.45;10.45;;;;;;;;;;5055098;28;20461;-75
2023/06/22 08:52:55;;;;;;;10.50;9.18;;;;;;;;;;5053665;28;20496;-74
2023/06/22 08:55:21;;;;;;;11.17;10.17;;;;;;;;;;5054071;28;20013;-74
2023/06/22 08:57:46;;;;;;;11.48;10.38;;;;;;;;;;5055423;28;20264;-74
2023/06/22 09:00:19;;;;;;;10.97;9.97;;;;;;;;;;5053702;28;20448;-75
2023/06/22 09:02:45;;;;;;;10.57;9.52;;;;;;;;;;5054842;28;20037;-75
2023/06/22 09:05:28;;;;;;;11.85;10.32;;;;;;;;;;5052807;28;20433;-75
2023/06/22 09:08:04;;;;;;;10.50;9.57;;;;;;;;;;5053932;28;20088;-74
2023/06/22 09:10:30;;;;;;;11.40;9.30;;;;;;;;;;5053490;28;20031;-75
2023/06/22 09:12:59;;;;;;;12.95;9.98;;;;;;;;;;5053697;28;20017;-74
2023/06/22 09:15:25;;;;;;;10.65;9.65;;;;;;;;;;5053717;28;20386;-74
2023/06/22 09:17:56;;;;;;;11.13;9.00;;;;;;;;;;5053902;28;20024;-75
2023/06/22 09:20:23;;;;;;;9.75;8.95;;;;;;;;;;5053732;28;20021;-74
2023/06/22 09:22:49;;;;;;;9.98;9.00;;;;;;;;;;5054248;28;20090;-74
2023/06/22 09:25:15;;;;;;;10.80;9.80;;;;;;;;;;5054706;28;20470;-75
2023/06/22 09:27:40;;;;;;;12.45;10.63;;;;;;;;;;5053071;28;20100;-75
2023/06/22 09:30:06;;;;;;;10.30;9.27;;;;;;;;;;5052947;28;20369;-75
2023/06/22 09:32:32;;;;;;;11.00;9.88;;;;;;;;;;5054624;28;20274;-75
2023/06/22 09:34:58;;;;;;;11.00;9.73;;;;;;;;;;5054252;28;20113;-75
2023/06/22 09:37:23;;;;;;;10.77;9.67;;;;;;;;;;5052913;28;20172;-75
2023/06/22 09:39:48;;;;;;;10.43;9.40;;;;;;;;;;5053201;28;20024;-76
2023/06/22 09:42:14;;;;;;;9.63;8.73;;;;;;;;;;5054013;28;20275;-75
2023/06/22 09:44:41;;;;;;;9.63;8.63;;;;;;;;;;5054202;28;20074;-75
2023/06/22 09:47:07;;;;;;;9.43;8.63;;;;;;;;;;5054275;28;20016;-75
2023/06/22 09:49:34;;;;;;;9.95;8.95;;;;;;;;;;5052568;28;20044;-75
2023/06/22 09:52:01;;;;;;;10.75;9.65;;;;;;;;;;5054177;28;20046;-74
2023/06/22 09:54:26;;;;;;;10.68;9.68;;;;;;;;;;5035946;28;20085;-74
2023/06/22 09:56:52;;;;;;;9.90;8.90;;;;;;;;;;5053971;28;20463;-75
2023/06/22 09:59:26;;;;;;;9.52;8.18;;;;;;;;;;5053785;28;20036;-74
2023/06/22 10:01:53;;;;;;;9.63;8.63;;;;;;;;;;5052038;28;20049;-75
2023/06/22 10:04:19;;;;;;;9.73;8.82;;;;;;;;;;5053689;28;20374;-75
2023/06/22 10:06:45;;;;;;;8.38;7.68;;;;;;;;;;5053959;28;20099;-75
2023/06/22 10:09:10;;;;;;;9.27;8.38;;;;;;;;;;5053864;28;20017;-74
2023/06/22 10:11:37;;;;;;;9.60;7.37;;;;;;;;;;5053141;28;20021;-75
2023/06/22 10:14:04;;;;;;;9.27;8.35;;;;;;;;;;5053395;28;20033;-75
2023/06/22 10:16:41;;;;;;;8.88;7.97;;;;;;;;;;5053381;28;20458;-75
2023/06/22 10:19:06;;;;;;;10.38;7.88;;;;;;;;;;5053497;28;20424;-75
2023/06/22 10:21:32;;;;;;;9.07;8.18;;;;;;;;;;5053419;28;20021;-75
2023/06/22 10:24:01;;;;;;;8.98;8.10;;;;;;;;;;5052025;28;20060;-75
2023/06/22 10:26:28;;;;;;;9.63;8.52;;;;;;;;;;5053178;28;20021;-75
2023/06/22 10:28:55;;;;;;;9.35;8.52;;;;;;;;;;5051807;28;20029;-74
2023/06/22 10:31:21;;;;;;;10.13;7.68;;;;;;;;;;5053468;28;20052;-75
2023/06/22 10:33:49;;;;;;;9.23;8.13;;;;;;;;;;5053212;28;20029;-74
2023/06/22 10:36:15;;;;;;;8.90;8.00;;;;;;;;;;5053125;28;20519;-75
2023/06/22 10:38:40;;;;;;;9.77;7.90;;;;;;;;;;5053450;28;20020;-75
2023/06/22 10:41:08;;;;;;;9.53;7.90;;;;;;;;;;5052920;28;20283;-75
2023/06/22 10:43:33;;;;;;;8.73;7.82;;;;;;;;;;5051697;28;20078;-75
2023/06/22 10:45:59;;;;;;;11.63;8.63;;;;;;;;;;5051736;28;20124;-75
2023/06/22 10:48:24;;;;;;;8.65;7.65;;;;;;;;;;5053205;28;20075;-74
2023/06/22 10:50:49;;;;;;;9.30;7.43;;;;;;;;;;5053088;28;20556;-75
2023/06/22 10:53:15;;;;;;;9.20;8.40;;;;;;;;;;5053115;28;20029;-75
2023/06/22 10:55:40;;;;;;;8.95;7.35;;;;;;;;;;5052855;28;20025;-75
2023/06/22 10:58:07;;;;;;;10.80;7.30;;;;;;;;;;5052756;28;20029;-74
2023/06/22 11:00:34;;;;;;;8.18;7.43;;;;;;;;;;5052520;28;20044;-74
2023/06/22 11:02:59;;;;;;;9.27;8.27;;;;;;;;;;5052571;28;20150;-74
2023/06/22 11:05:25;;;;;;;8.03;7.17;;;;;;;;;;5053292;28;20027;-75
2023/06/22 11:07:51;;;;;;;8.43;7.43;;;;;;;;;;5051284;28;20267;-74
2023/06/22 11:10:16;;;;;;;11.15;7.10;;;;;;;;;;5052839;28;20442;-73
2023/06/22 11:12:42;;;;;;;8.13;7.30;;;;;;;;;;5052727;28;20029;-75
2023/06/22 11:15:08;;;;;;;9.52;7.20;;;;;;;;;;5052828;28;20024;-76
2023/06/22 11:17:36;;;;;;;7.78;6.75;;;;;;;;;;5052769;28;20028;-77
2023/06/22 11:20:09;;;;;;;9.85;7.57;;;;;;;;;;5052992;28;20024;-76
2023/06/22 11:22:50;;;;;;;8.52;7.70;;;;;;;;;;5052498;28;20478;-76
2023/06/22 11:25:16;;;;;;;11.40;7.93;;;;;;;;;;5056275;28;20048;-76
2023/06/22 11:27:42;;;;;;;8.32;7.32;;;;;;;;;;5055194;28;20025;-77
2023/06/22 11:30:08;;;;;;;10.55;7.80;;;;;;;;;;5056720;28;20082;-77
2023/06/22 11:32:33;;;;;;;9.57;7.63;;;;;;;;;;5056831;28;20477;-77
2023/06/22 11:35:00;;;;;;;8.32;7.53;;;;;;;;;;5056426;28;20491;-78
2023/06/22 11:37:25;;;;;;;8.50;6.85;;;;;;;;;;5056401;28;20025;-77
2023/06/22 11:39:51;;;;;;;8.15;7.20;;;;;;;;;;5056262;28;20037;-77
2023/06/22 11:42:18;;;;;;;11.65;8.23;;;;;;;;;;5055153;28;20496;-76
2023/06/22 11:44:44;;;;;;;8.30;7.50;;;;;;;;;;5056712;28;20059;-77
2023/06/22 11:47:11;;;;;;;8.75;7.20;;;;;;;;;;5056948;28;20373;-76
2023/06/22 11:49:38;;;;;;;8.07;7.28;;;;;;;;;;5056423;28;20029;-77
2023/06/22 11:52:04;;;;;;;9.25;7.43;;;;;;;;;;5055546;28;20033;-76
2023/06/22 11:54:30;;;;;;;8.27;6.60;;;;;;;;;;5056005;28;20063;-77
2023/06/22 11:56:56;;;;;;;7.07;6.30;;;;;;;;;;5056301;28;20036;-77
2023/06/22 11:59:22;;;;;;;7.00;6.40;;;;;;;;;;5055091;28;20484;-77
2023/06/22 12:01:50;;;;;;;7.38;6.28;;;;;;;;;;5055452;28;20482;-76
2023/06/22 12:04:16;;;;;;;6.82;5.85;;;;;;;;;;5055197;28;20466;-76
2023/06/22 12:06:43;;;;;;;6.60;5.75;;;;;;;;;;5053548;28;20036;-75
2023/06/22 12:09:30;;;;;;;7.88;6.22;;;;;;;;;;5054268;28;20021;-78
2023/06/22 12:11:55;;;;;;;6.53;5.93;;;;;;;;;;5056023;28;20376;-78
2023/06/22 12:14:21;;;;;;;7.20;6.50;;;;;;;;;;5055529;28;20489;-78
2023/06/22 12:16:46;;;;;;;7.78;6.22;;;;;;;;;;5054134;28;20270;-75
2023/06/22 12:19:13;;;;;;;7.07;6.30;;;;;;;;;;5055914;28;20056;-73
2023/06/22 12:21:40;;;;;;;7.75;6.45;;;;;;;;;;5055893;28;20028;-74
2023/06/22 12:24:06;;;;;;;6.90;6.20;;;;;;;;;;5055823;28;20044;-74
2023/06/22 12:26:33;;;;;;;9.13;5.93;;;;;;;;;;5055771;28;20359;-74
2023/06/22 12:29:00;;;;;;;6.25;5.57;;;;;;;;;;5055626;28;20020;-73
2023/06/22 12:31:25;;;;;;;6.47;5.30;;;;;;;;;;5055376;28;20013;-74
2023/06/22 12:33:51;;;;;;;8.37;6.77;;;;;;;;;;5054105;28;20052;-73
2023/06/22 12:36:16;;;;;;;6.27;5.40;;;;;;;;;;5053484;28;20039;-74
2023/06/22 12:38:41;;;;;;;8.32;5.47;;;;;;;;;;5055361;28;20033;-74
2023/06/22 12:41:13;;;;;;;6.05;5.55;;;;;;;;;;5055050;28;20087;-75
2023/06/22 12:43:44;;;;;;;5.70;5.20;;;;;;;;;;5053902;28;20546;-75
2023/06/22 12:46:10;;;;;;;7.22;5.25;;;;;;;;;;5054111;28;20036;-74
2023/06/22 12:48:41;;;;;;;5.78;5.28;;;;;;;;;;5054265;28;20154;-74
2023/06/22 12:51:06;;;;;;;7.55;5.45;;;;;;;;;;5054279;28;20028;-75
2023/06/22 12:53:33;;;;;;;5.30;4.80;;;;;;;;;;5053952;28;20021;-76
2023/06/22 12:55:58;;;;;;;5.65;4.85;;;;;;;;;;5054554;28;20025;-74
2023/06/22 12:58:23;;;;;;;6.95;5.35;;;;;;;;;;5055119;28;20381;-76
2023/06/22 13:00:50;;;;;;;5.97;4.83;;;;;;;;;;5054196;28;20478;-75
2023/06/22 13:03:18;;;;;;;6.82;5.82;;;;;;;;;;5053358;28;20523;-75
2023/06/22 13:05:51;;;;;;;6.20;5.60;;;;;;;;;;5053689;28;20025;-74
2023/06/22 13:08:23;;;;;;;5.85;5.28;;;;;;;;;;5053959;28;20040;-74
2023/06/22 13:10:48;;;;;;;6.28;5.47;;;;;;;;;;5054057;28;20013;-74
2023/06/22 13:13:13;;;;;;;5.87;5.20;;;;;;;;;;5053545;28;20028;-74
2023/06/22 13:15:40;;;;;;;7.33;5.80;;;;;;;;;;5054789;28;20112;-75
2023/06/22 13:18:05;;;;;;;6.10;5.50;;;;;;;;;;5054835;28;20638;-75
2023/06/22 13:20:32;;;;;;;6.97;5.87;;;;;;;;;;5054819;28;20457;-75
2023/06/22 13:22:58;;;;;;;7.20;5.68;;;;;;;;;;5054708;28;20021;-74
2023/06/22 13:25:23;;;;;;;6.60;6.00;;;;;;;;;;5054465;28;20024;-74
2023/06/22 13:27:49;;;;;;;8.73;6.72;;;;;;;;;;5052997;28;20025;-75
2023/06/22 13:30:16;;;;;;;6.78;6.07;;;;;;;;;;5036359;28;20040;-75
2023/06/22 13:32:41;;;;;;;7.15;6.07;;;;;;;;;;5052859;28;20025;-76
2023/06/22 13:35:17;;;;;;;7.05;6.35;;;;;;;;;;5053421;28;20486;-77
2023/06/22 13:37:42;;;;;;;6.63;6.03;;;;;;;;;;5056228;28;20408;-77
2023/06/22 13:40:08;;;;;;;7.43;6.47;;;;;;;;;;5054726;28;20086;-77
2023/06/22 13:42:34;;;;;;;7.07;6.38;;;;;;;;;;5053334;28;20025;-77
2023/06/22 13:45:08;;;;;;;6.22;5.60;;;;;;;;;;5054558;28;20032;-75
2023/06/22 13:47:34;;;;;;;9.15;6.50;;;;;;;;;;5053410;28;20021;-76
2023/06/22 13:50:08;;;;;;;7.03;5.90;;;;;;;;;;5054645;28;20039;-80
2023/06/22 13:52:34;;;;;;;7.45;6.63;;;;;;;;;;5053947;28;20082;-73
2023/06/22 13:55:01;;;;;;;7.60;6.43;;;;;;;;;;5053676;28;20035;-73
2023/06/22 13:57:27;;;;;;;7.70;6.93;;;;;;;;;;5054108;28;20021;-72
2023/06/22 13:59:52;;;;;;;7.80;6.57;;;;;;;;;;5052554;28;20377;-72
2023/06/22 14:02:17;;;;;;;9.35;6.22;;;;;;;;;;5051865;28;20287;-73
2023/06/22 14:04:44;;;;;;;7.40;6.70;;;;;;;;;;5053702;28;20573;-71
2023/06/22 14:07:09;;;;;;;6.90;6.30;;;;;;;;;;5053908;28;20027;-73
2023/06/22 14:09:36;;;;;;;10.05;6.78;;;;;;;;;;5053625;28;20025;-74
2023/06/22 14:12:08;;;;;;;7.53;6.30;;;;;;;;;;5053603;28;20049;-72
2023/06/22 14:14:34;;;;;;;7.25;6.50;;;;;;;;;;5052461;28;20112;-71
2023/06/22 14:17:02;;;;;;;7.30;6.55;;;;;;;;;;5053889;28;20029;-77
2023/06/22 14:19:28;;;;;;;8.90;6.75;;;;;;;;;;5053861;28;20051;-76
2023/06/22 14:21:53;;;;;;;7.47;6.78;;;;;;;;;;5055522;28;20091;-77
2023/06/22 14:24:19;;;;;;;8.27;7.47;;;;;;;;;;5054382;28;20465;-82
2023/06/22 14:26:45;;;;;;;7.40;6.70;;;;;;;;;;5053958;28;20271;-81